createdAt,value
2023-05-11T00:02:21.958Z,11.22
2023-05-11T00:04:48.730Z,11.12
2023-05-11T00:07:15.633Z,11.09
2023-05-11T00:09:42.408Z,10.97
2023-05-11T00:12:09.148Z,10.89
2023-05-11T00:14:35.980Z,11.02
2023-05-11T00:17:02.700Z,10.98
2023-05-11T00:19:31.711Z,11.07
2023-05-11T00:21:59.361Z,10.92
2023-05-11T00:24:26.481Z,10.95
2023-05-11T00:26:53.445Z,10.81
2023-05-11T00:29:20.196Z,10.83
2023-05-11T00:31:48.319Z,10.83
2023-05-11T00:34:17.708Z,10.88
2023-05-11T00:36:45.554Z,10.80
2023-05-11T00:39:12.737Z,10.82
2023-05-11T00:41:39.646Z,10.65
2023-05-11T00:44:06.855Z,10.86
2023-05-11T00:46:33.753Z,10.74
2023-05-11T00:49:00.614Z,10.72
2023-05-11T00:51:28.065Z,10.62
2023-05-11T00:53:54.820Z,10.68
2023-05-11T00:56:22.085Z,10.66
2023-05-11T00:58:49.097Z,10.70
2023-05-11T01:01:18.063Z,10.66
2023-05-11T01:03:46.347Z,10.50
2023-05-11T01:06:44.692Z,10.72
2023-05-11T01:09:47.025Z,10.68
2023-05-11T01:12:33.866Z,10.60
2023-05-11T01:15:28.606Z,10.54
2023-05-11T01:18:11.897Z,10.61
2023-05-11T01:20:40.082Z,10.37
2023-05-11T01:23:28.581Z,10.60
2023-05-11T01:26:04.486Z,10.64
2023-05-11T01:29:06.602Z,10.58
2023-05-11T01:31:34.869Z,10.59
2023-05-11T01:34:05.432Z,10.76
2023-05-11T01:36:39.242Z,10.71
2023-05-11T01:39:10.132Z,10.63
2023-05-11T01:41:40.456Z,10.66
2023-05-11T01:44:10.684Z,10.76
2023-05-11T01:46:38.740Z,10.66
2023-05-11T01:49:10.036Z,10.66
2023-05-11T01:51:38.568Z,10.72
2023-05-11T01:54:08.810Z,10.74
2023-05-11T01:56:37.453Z,10.57
2023-05-11T01:59:05.168Z,10.62
2023-05-11T02:01:35.864Z,10.55
2023-05-11T02:04:05.040Z,10.66
2023-05-11T02:06:34.531Z,10.61
2023-05-11T02:09:03.365Z,10.59
2023-05-11T02:11:31.243Z,10.66
2023-05-11T02:13:59.373Z,10.59
2023-05-11T02:16:28.529Z,10.64
2023-05-11T02:18:57.436Z,10.58
2023-05-11T02:21:26.573Z,10.58
2023-05-11T02:23:54.477Z,10.63
2023-05-11T02:26:22.018Z,10.60
2023-05-11T02:28:48.742Z,10.64
2023-05-11T02:31:27.802Z,10.62
2023-05-11T02:33:59.806Z,10.50
2023-05-11T02:36:29.732Z,10.33
2023-05-11T02:39:01.725Z,10.61
2023-05-11T02:41:30.784Z,10.55
2023-05-11T02:44:03.036Z,10.55
2023-05-11T02:46:35.666Z,10.39
2023-05-11T02:49:05.922Z,10.42
2023-05-11T02:51:41.422Z,10.39
2023-05-11T02:54:12.546Z,10.46
2023-05-11T02:56:39.591Z,10.47
2023-05-11T02:59:06.547Z,10.47
2023-05-11T03:01:34.104Z,10.34
2023-05-11T03:04:04.882Z,10.58
2023-05-11T03:06:32.360Z,10.56
2023-05-11T03:08:59.706Z,10.53
2023-05-11T03:11:26.738Z,10.67
2023-05-11T03:13:53.816Z,10.72
2023-05-11T03:16:21.702Z,10.57
2023-05-11T03:18:49.930Z,10.55
2023-05-11T03:21:21.505Z,10.33
2023-05-11T03:23:49.532Z,10.50
2023-05-11T03:26:18.886Z,10.75
2023-05-11T03:28:47.193Z,10.81
2023-05-11T03:31:14.109Z,10.66
2023-05-11T03:33:40.922Z,10.66
2023-05-11T03:36:10.745Z,10.73
2023-05-11T03:38:39.180Z,10.58
2023-05-11T03:41:06.050Z,10.55
2023-05-11T03:43:35.999Z,10.49
2023-05-11T03:46:04.018Z,10.55
2023-05-11T03:48:32.418Z,10.48
2023-05-11T03:50:59.481Z,10.51
2023-05-11T03:53:26.673Z,10.53
2023-05-11T03:55:53.486Z,10.58
2023-05-11T03:58:20.524Z,10.56
2023-05-11T04:00:47.299Z,10.49
2023-05-11T04:03:14.393Z,10.57
2023-05-11T04:05:41.514Z,10.58
2023-05-11T04:08:08.466Z,10.59
2023-05-11T04:10:35.196Z,10.44
2023-05-11T04:13:01.954Z,10.50
2023-05-11T04:15:28.833Z,10.59
2023-05-11T04:17:56.000Z,10.61
2023-05-11T04:20:22.803Z,10.66
2023-05-11T04:22:49.604Z,10.77
2023-05-11T04:25:16.714Z,10.78
2023-05-11T04:27:43.413Z,10.70
2023-05-11T04:30:10.477Z,10.74
2023-05-11T04:32:37.273Z,10.76
2023-05-11T04:35:04.326Z,10.77
2023-05-11T04:37:31.802Z,10.73
2023-05-11T04:39:58.555Z,10.93
2023-05-11T04:42:25.357Z,11.00
2023-05-11T04:44:55.129Z,10.92
2023-05-11T04:47:21.976Z,11.00
2023-05-11T04:49:48.631Z,11.05
2023-05-11T04:52:15.498Z,11.08
2023-05-11T04:54:42.501Z,11.13
2023-05-11T04:57:09.251Z,10.92
2023-05-11T04:59:36.120Z,11.13
2023-05-11T05:02:02.977Z,11.19
2023-05-11T05:04:29.805Z,11.22
2023-05-11T05:06:56.578Z,11.37
2023-05-11T05:09:23.330Z,11.32
2023-05-11T05:11:50.125Z,11.43
2023-05-11T05:14:16.878Z,11.34
2023-05-11T05:16:43.643Z,11.32
2023-05-11T05:19:12.891Z,11.49
2023-05-11T05:21:40.840Z,11.64
2023-05-11T05:24:11.226Z,11.67
2023-05-11T05:26:38.238Z,11.83
2023-05-11T05:29:06.658Z,11.89
2023-05-11T05:31:33.539Z,12.14
2023-05-11T05:34:00.342Z,12.24
2023-05-11T05:36:27.137Z,12.10
2023-05-11T05:38:53.940Z,12.09
2023-05-11T05:41:23.216Z,12.07
2023-05-11T05:43:51.661Z,12.33
2023-05-11T05:46:18.678Z,12.50
2023-05-11T05:48:45.445Z,12.57
2023-05-11T05:51:12.188Z,12.64
2023-05-11T05:53:39.051Z,12.82
2023-05-11T05:56:06.231Z,12.70
2023-05-11T05:58:32.944Z,12.66
2023-05-11T06:01:01.020Z,12.78
2023-05-11T06:03:29.361Z,12.84
2023-05-11T06:05:56.610Z,12.94
2023-05-11T06:08:23.335Z,13.10
2023-05-11T06:10:49.983Z,13.02
2023-05-11T06:13:16.899Z,13.11
2023-05-11T06:15:44.018Z,13.10
2023-05-11T06:18:11.028Z,13.09
2023-05-11T06:20:37.787Z,13.03
2023-05-11T06:23:04.552Z,13.23
2023-05-11T06:25:35.343Z,13.57
2023-05-11T06:28:02.239Z,13.82
2023-05-11T06:30:29.720Z,13.89
2023-05-11T06:32:56.433Z,13.91
2023-05-11T06:35:23.261Z,13.82
2023-05-11T06:37:49.966Z,13.86
2023-05-11T06:40:16.889Z,13.77
2023-05-11T06:42:44.005Z,14.03
2023-05-11T06:45:11.174Z,13.95
2023-05-11T06:47:38.007Z,14.01
2023-05-11T06:50:05.337Z,14.30
2023-05-11T06:52:32.147Z,14.35
2023-05-11T06:54:58.837Z,14.26
2023-05-11T06:57:25.540Z,14.63
2023-05-11T06:59:52.314Z,14.72
2023-05-11T07:02:19.021Z,14.72
2023-05-11T07:04:45.808Z,14.95
2023-05-11T07:07:13.167Z,14.93
2023-05-11T07:09:42.024Z,14.72
2023-05-11T07:12:08.911Z,14.89
2023-05-11T07:14:35.644Z,15.18
2023-05-11T07:17:02.411Z,15.15
2023-05-11T07:19:30.096Z,15.19
2023-05-11T07:21:56.825Z,14.97
2023-05-11T07:24:23.616Z,14.87
2023-05-11T07:26:51.085Z,15.11
2023-05-11T07:29:17.828Z,15.20
2023-05-11T07:31:45.414Z,15.36
2023-05-11T07:34:12.184Z,15.32
2023-05-11T07:36:38.978Z,15.54
2023-05-11T07:39:05.956Z,15.69
2023-05-11T07:41:32.695Z,16.05
2023-05-11T07:44:01.240Z,16.42
2023-05-11T07:46:28.290Z,16.37
2023-05-11T07:49:07.250Z,16.81
2023-05-11T07:51:42.087Z,16.74
2023-05-11T07:54:08.963Z,16.81
2023-05-11T07:56:35.751Z,16.64
2023-05-11T07:59:02.681Z,16.75
2023-05-11T08:01:29.484Z,17.02
2023-05-11T08:03:56.326Z,16.79
2023-05-11T08:06:23.056Z,16.77
2023-05-11T08:08:49.785Z,16.86
2023-05-11T08:11:16.567Z,16.87
2023-05-11T08:13:43.230Z,17.16
2023-05-11T08:16:10.063Z,17.45
2023-05-11T08:18:37.313Z,17.50
2023-05-11T08:21:04.336Z,17.87
2023-05-11T08:23:31.786Z,18.13
2023-05-11T08:25:58.552Z,18.34
2023-05-11T08:28:25.694Z,18.23
2023-05-11T08:30:59.452Z,18.37
2023-05-11T08:33:37.407Z,18.01
2023-05-11T08:36:06.405Z,17.66
2023-05-11T08:38:33.648Z,17.34
2023-05-11T08:41:01.965Z,17.41
2023-05-11T08:43:30.490Z,17.57
2023-05-11T08:46:02.918Z,18.15
2023-05-11T08:48:30.963Z,17.90
2023-05-11T08:50:59.373Z,17.75
2023-05-11T08:53:26.142Z,17.71
2023-05-11T08:55:55.487Z,17.62
2023-05-11T08:58:22.961Z,17.78
2023-05-11T09:00:50.258Z,17.97
2023-05-11T09:03:20.210Z,17.74
2023-05-11T09:05:47.843Z,17.77
2023-05-11T09:08:17.600Z,17.49
2023-05-11T09:10:44.459Z,17.55
2023-05-11T09:13:11.625Z,17.64
2023-05-11T09:15:38.534Z,17.54
2023-05-11T09:18:05.827Z,17.68
2023-05-11T09:20:34.033Z,17.62
2023-05-11T09:23:01.435Z,17.93
2023-05-11T09:25:33.248Z,18.24
2023-05-11T09:28:00.720Z,18.21
2023-05-11T09:30:27.792Z,18.41
2023-05-11T09:33:02.660Z,18.47
2023-05-11T09:35:32.034Z,18.03
2023-05-11T09:38:05.135Z,18.08
2023-05-11T09:40:34.913Z,17.95
2023-05-11T09:43:21.606Z,18.03
2023-05-11T09:45:50.202Z,17.51
2023-05-11T09:48:17.090Z,17.75
2023-05-11T09:50:44.194Z,17.58
2023-05-11T09:53:11.215Z,17.57
2023-05-11T09:55:38.279Z,17.65
2023-05-11T09:58:05.006Z,17.54
2023-05-11T10:00:32.344Z,17.82
2023-05-11T10:03:07.839Z,17.91
2023-05-11T10:05:36.198Z,17.43
2023-05-11T10:08:05.170Z,17.75
2023-05-11T10:10:35.347Z,17.92
2023-05-11T10:13:03.337Z,17.82
2023-05-11T10:15:32.504Z,17.79
2023-05-11T10:18:01.372Z,17.91
2023-05-11T10:20:28.320Z,17.55
2023-05-11T10:22:56.313Z,17.45
2023-05-11T10:25:25.036Z,17.32
2023-05-11T10:27:52.304Z,17.31
2023-05-11T10:30:19.895Z,17.20
2023-05-11T10:32:47.431Z,16.78
2023-05-11T10:35:14.465Z,16.62
2023-05-11T10:37:43.120Z,16.67
2023-05-11T10:40:10.950Z,16.51
2023-05-11T10:42:43.662Z,16.26
2023-05-11T10:45:41.114Z,16.24
2023-05-11T10:48:16.914Z,15.95
2023-05-11T10:51:11.484Z,15.75
2023-05-11T10:53:46.805Z,15.73
2023-05-11T10:56:43.539Z,15.60
2023-05-11T10:59:44.239Z,15.63
2023-05-11T11:02:11.173Z,15.59
2023-05-11T11:04:49.729Z,15.46
2023-05-11T11:07:18.800Z,15.44
2023-05-11T11:09:51.839Z,15.55
2023-05-11T11:12:20.390Z,15.51
2023-05-11T11:15:07.690Z,15.43
2023-05-11T11:17:36.521Z,15.52
2023-05-11T11:20:08.596Z,15.56
2023-05-11T11:22:35.520Z,15.66
2023-05-11T11:25:05.860Z,15.82
2023-05-11T11:27:42.017Z,16.06
2023-05-11T11:30:25.862Z,15.84
2023-05-11T11:32:54.909Z,15.67
2023-05-11T11:35:43.025Z,15.55
2023-05-11T11:38:12.012Z,15.56
2023-05-11T11:40:50.651Z,15.52
2023-05-11T11:43:26.097Z,15.68
2023-05-11T11:46:00.129Z,15.69
2023-05-11T11:48:36.877Z,16.06
2023-05-11T11:51:08.771Z,16.34
2023-05-11T11:53:39.679Z,16.26
2023-05-11T11:56:29.092Z,16.01
2023-05-11T11:58:55.873Z,16.22
2023-05-11T12:01:26.811Z,16.17
2023-05-11T12:04:18.208Z,16.08
2023-05-11T12:06:52.092Z,16.41
2023-05-11T12:09:19.508Z,16.29
2023-05-11T12:11:47.975Z,16.27
2023-05-11T12:14:15.736Z,16.31
2023-05-11T12:16:42.466Z,15.94
2023-05-11T12:19:09.294Z,15.89
2023-05-11T12:21:36.127Z,16.01
2023-05-11T12:24:05.277Z,15.81
2023-05-11T12:26:34.469Z,15.77
2023-05-11T12:29:11.383Z,15.86
2023-05-11T12:31:46.603Z,15.67
2023-05-11T12:34:18.142Z,15.41
2023-05-11T12:36:50.062Z,15.65
2023-05-11T12:39:18.984Z,15.50
2023-05-11T12:41:47.629Z,15.35
2023-05-11T12:44:16.255Z,15.45
2023-05-11T12:46:44.639Z,15.42
2023-05-11T12:49:14.112Z,15.41
2023-05-11T12:52:11.205Z,15.41
2023-05-11T12:54:51.374Z,15.38
2023-05-11T12:57:27.418Z,15.45
2023-05-11T13:00:08.148Z,15.63
2023-05-11T13:02:35.377Z,15.64
2023-05-11T13:05:15.047Z,15.65
2023-05-11T13:07:42.199Z,15.90
2023-05-11T13:10:09.168Z,15.83
2023-05-11T13:12:48.205Z,15.88
2023-05-11T13:15:14.932Z,15.76
2023-05-11T13:17:43.287Z,15.79
2023-05-11T13:20:27.441Z,16.05
2023-05-11T13:23:08.801Z,16.05
2023-05-11T13:25:51.689Z,16.11
2023-05-11T13:28:20.767Z,16.12
2023-05-11T13:30:48.221Z,16.31
2023-05-11T13:33:15.172Z,16.02
2023-05-11T13:35:43.358Z,15.81
2023-05-11T13:38:11.323Z,16.12
2023-05-11T13:40:39.541Z,16.19
2023-05-11T13:43:07.539Z,15.81
2023-05-11T13:45:36.477Z,16.08
2023-05-11T13:48:03.719Z,16.12
2023-05-11T13:50:30.912Z,16.07
2023-05-11T13:52:57.669Z,16.16
2023-05-11T13:55:24.559Z,16.30
2023-05-11T13:57:51.864Z,16.38
2023-05-11T14:00:19.820Z,16.15
2023-05-11T14:02:48.338Z,15.76
2023-05-11T14:05:15.180Z,16.06
2023-05-11T14:07:47.624Z,16.15
2023-05-11T14:10:15.825Z,16.08
2023-05-11T14:12:42.896Z,15.75
2023-05-11T14:15:10.766Z,15.78
2023-05-11T14:17:37.753Z,15.71
2023-05-11T14:20:06.192Z,15.63
2023-05-11T14:22:32.930Z,15.42
2023-05-11T14:25:00.185Z,15.45
2023-05-11T14:27:27.227Z,15.47
2023-05-11T14:29:55.077Z,15.43
2023-05-11T14:32:21.891Z,15.39
2023-05-11T14:34:48.896Z,15.38
2023-05-11T14:37:24.280Z,15.26
2023-05-11T14:39:51.187Z,14.76
2023-05-11T14:42:18.552Z,15.16
2023-05-11T14:44:46.405Z,15.17
2023-05-11T14:47:13.174Z,15.26
2023-05-11T14:49:39.871Z,15.15
2023-05-11T14:52:06.826Z,15.10
2023-05-11T14:54:35.184Z,15.11
2023-05-11T14:57:01.976Z,14.79
2023-05-11T14:59:28.873Z,14.87
2023-05-11T15:01:55.698Z,14.93
2023-05-11T15:04:22.849Z,14.81
2023-05-11T15:06:49.696Z,14.73
2023-05-11T15:09:16.490Z,14.51
2023-05-11T15:11:43.149Z,14.62
2023-05-11T15:14:10.703Z,14.79
2023-05-11T15:16:38.143Z,14.57
2023-05-11T15:19:05.625Z,14.61
2023-05-11T15:21:32.746Z,14.74
2023-05-11T15:23:59.506Z,14.48
2023-05-11T15:26:26.207Z,14.62
2023-05-11T15:28:52.940Z,14.37
2023-05-11T15:31:20.005Z,14.52
2023-05-11T15:33:46.927Z,14.42
2023-05-11T15:36:15.346Z,14.41
2023-05-11T15:38:43.223Z,14.49
2023-05-11T15:41:10.135Z,14.32
2023-05-11T15:43:36.972Z,14.26
2023-05-11T15:46:05.084Z,14.33
2023-05-11T15:48:32.215Z,14.26
2023-05-11T15:51:03.097Z,14.15
2023-05-11T15:53:29.964Z,14.04
2023-05-11T15:55:57.470Z,14.02
2023-05-11T15:58:24.249Z,14.04
2023-05-11T16:00:51.367Z,13.98
2023-05-11T16:03:20.142Z,13.82
2023-05-11T16:05:47.111Z,14.00
2023-05-11T16:08:14.090Z,13.99
2023-05-11T16:10:41.065Z,13.69
2023-05-11T16:13:08.337Z,13.58
2023-05-11T16:15:35.016Z,13.65
2023-05-11T16:18:04.852Z,13.67
2023-05-11T16:20:32.336Z,13.48
2023-05-11T16:22:59.153Z,13.53
2023-05-11T16:25:29.405Z,13.47
2023-05-11T16:27:57.082Z,13.45
2023-05-11T16:30:25.469Z,13.24
2023-05-11T16:32:54.110Z,13.34
2023-05-11T16:35:21.040Z,13.24
2023-05-11T16:37:48.376Z,12.93
2023-05-11T16:40:21.970Z,13.08
2023-05-11T16:42:49.202Z,13.00
2023-05-11T16:45:16.997Z,12.96
2023-05-11T16:47:46.750Z,12.83
2023-05-11T16:50:14.884Z,12.91
2023-05-11T16:52:42.427Z,12.73
2023-05-11T16:55:09.815Z,12.60
2023-05-11T16:57:36.732Z,12.82
2023-05-11T17:00:03.713Z,12.68
2023-05-11T17:02:31.097Z,12.57
2023-05-11T17:04:57.765Z,12.62
2023-05-11T17:07:25.593Z,12.65
2023-05-11T17:10:08.510Z,12.37
2023-05-11T17:12:45.322Z,12.41
2023-05-11T17:15:12.717Z,12.24
2023-05-11T17:17:39.934Z,12.32
2023-05-11T17:20:08.073Z,12.08
2023-05-11T17:22:35.390Z,12.21
2023-05-11T17:25:04.421Z,12.08
2023-05-11T17:27:32.162Z,12.18
2023-05-11T17:29:59.872Z,12.14
2023-05-11T17:32:27.067Z,11.91
2023-05-11T17:34:54.159Z,11.99
2023-05-11T17:37:31.393Z,12.10
2023-05-11T17:40:02.810Z,12.09
2023-05-11T17:42:30.964Z,11.83
2023-05-11T17:44:57.988Z,11.87
2023-05-11T17:47:24.814Z,11.73
2023-05-11T17:49:51.572Z,11.72
2023-05-11T17:52:18.354Z,11.57
2023-05-11T17:54:45.238Z,11.82
2023-05-11T17:57:12.024Z,11.72
2023-05-11T17:59:38.793Z,11.62
2023-05-11T18:02:05.485Z,11.65
2023-05-11T18:04:34.910Z,11.47
2023-05-11T18:07:04.120Z,11.35
2023-05-11T18:09:31.059Z,11.20
2023-05-11T18:11:57.765Z,11.43
2023-05-11T18:14:24.585Z,11.50
2023-05-11T18:16:53.199Z,11.45
2023-05-11T18:19:20.008Z,11.36
2023-05-11T18:21:46.765Z,11.24
2023-05-11T18:24:17.810Z,11.27
2023-05-11T18:26:44.771Z,11.27
2023-05-11T18:29:11.673Z,11.26
2023-05-11T18:31:38.855Z,11.35
2023-05-11T18:34:05.929Z,11.31
2023-05-11T18:36:33.393Z,11.26
2023-05-11T18:39:00.173Z,11.20
2023-05-11T18:41:28.304Z,11.21
2023-05-11T18:43:55.070Z,11.32
2023-05-11T18:46:21.946Z,11.12
2023-05-11T18:48:52.987Z,11.20
2023-05-11T18:51:23.146Z,11.15
2023-05-11T18:53:50.901Z,11.16
2023-05-11T18:56:18.221Z,11.07
2023-05-11T18:58:46.630Z,11.25
2023-05-11T19:01:13.492Z,11.04
2023-05-11T19:03:40.388Z,10.99
2023-05-11T19:06:07.791Z,11.09
2023-05-11T19:08:35.175Z,11.10
2023-05-11T19:11:09.644Z,11.07
2023-05-11T19:13:37.303Z,11.06
2023-05-11T19:16:04.928Z,11.05
2023-05-11T19:18:35.448Z,11.02
2023-05-11T19:21:06.200Z,10.99
2023-05-11T19:23:33.674Z,11.02
2023-05-11T19:26:00.826Z,10.94
2023-05-11T19:28:30.584Z,10.96
2023-05-11T19:31:05.573Z,11.04
2023-05-11T19:33:33.546Z,11.07
2023-05-11T19:36:01.041Z,10.92
2023-05-11T19:38:27.886Z,10.93
2023-05-11T19:40:54.885Z,10.88
2023-05-11T19:43:23.775Z,10.82
2023-05-11T19:45:50.877Z,10.95
2023-05-11T19:48:17.971Z,10.70
2023-05-11T19:50:45.046Z,10.89
2023-05-11T19:53:11.780Z,11.08
2023-05-11T19:55:40.411Z,10.94
2023-05-11T19:58:07.965Z,11.02
2023-05-11T20:00:35.039Z,10.79
2023-05-11T20:03:02.013Z,10.80
2023-05-11T20:05:28.893Z,10.83
2023-05-11T20:07:55.875Z,10.79
2023-05-11T20:10:22.837Z,10.82
2023-05-11T20:12:49.585Z,10.85
2023-05-11T20:15:16.312Z,10.71
2023-05-11T20:17:43.429Z,10.70
2023-05-11T20:20:10.631Z,10.67
2023-05-11T20:22:38.199Z,10.69
2023-05-11T20:25:11.669Z,10.73
2023-05-11T20:27:44.483Z,10.64
2023-05-11T20:30:11.744Z,10.62
2023-05-11T20:32:38.462Z,10.70
2023-05-11T20:35:05.952Z,10.78
2023-05-11T20:37:32.738Z,10.87
2023-05-11T20:39:59.614Z,10.60
2023-05-11T20:42:27.214Z,10.63
2023-05-11T20:44:54.030Z,10.55
2023-05-11T20:47:20.844Z,10.64
2023-05-11T20:49:50.434Z,10.61
2023-05-11T20:52:17.972Z,10.65
2023-05-11T20:54:44.781Z,10.53
2023-05-11T20:57:11.615Z,10.49
2023-05-11T21:02:08.042Z,10.62
2023-05-11T21:04:36.182Z,10.53
2023-05-11T21:07:02.871Z,10.55
2023-05-11T21:09:29.591Z,10.49
2023-05-11T21:11:56.283Z,10.50
2023-05-11T21:14:23.129Z,10.49
2023-05-11T21:16:49.956Z,10.41
2023-05-11T21:19:16.890Z,10.47
2023-05-11T21:21:43.819Z,10.49
2023-05-11T21:24:10.718Z,10.41
2023-05-11T21:26:37.452Z,10.47
2023-05-11T21:29:04.141Z,10.34
2023-05-11T21:31:30.924Z,10.51
2023-05-11T21:33:57.933Z,10.43
2023-05-11T21:36:24.626Z,10.33
2023-05-11T21:38:51.407Z,10.55
2023-05-11T21:41:18.594Z,10.33
2023-05-11T21:43:45.612Z,10.43
2023-05-11T21:46:12.831Z,10.44
2023-05-11T21:48:39.614Z,10.52
2023-05-11T21:51:06.462Z,10.55
2023-05-11T21:53:33.141Z,10.49
2023-05-11T21:55:59.857Z,10.64
2023-05-11T21:58:27.624Z,10.58
2023-05-11T22:00:55.176Z,10.49
2023-05-11T22:03:22.102Z,10.31
2023-05-11T22:05:48.914Z,10.46
2023-05-11T22:08:16.047Z,10.30
2023-05-11T22:10:43.462Z,10.32
2023-05-11T22:13:10.487Z,10.33
2023-05-11T22:15:37.707Z,10.49
2023-05-11T22:18:05.211Z,10.41
2023-05-11T22:20:32.205Z,10.47
2023-05-11T22:22:59.553Z,10.29
2023-05-11T22:25:26.684Z,10.35
2023-05-11T22:27:53.459Z,10.32
2023-05-11T22:30:20.743Z,10.52
2023-05-11T22:32:47.764Z,10.44
2023-05-11T22:35:14.629Z,10.41
2023-05-11T22:37:41.470Z,10.39
2023-05-11T22:40:08.926Z,10.20
2023-05-11T22:42:35.749Z,10.35
2023-05-11T22:45:02.556Z,10.35
2023-05-11T22:47:29.573Z,10.25
2023-05-11T22:49:56.463Z,10.12
2023-05-11T22:52:23.263Z,10.22
2023-05-11T22:54:58.675Z,10.06
2023-05-11T22:57:28.857Z,10.10
2023-05-11T22:59:55.614Z,10.08
2023-05-11T23:03:31.560Z,10.03
2023-05-11T23:05:58.404Z,10.03
2023-05-11T23:08:26.737Z,10.16
2023-05-11T23:10:53.508Z,10.22
2023-05-11T23:13:20.278Z,10.26
2023-05-11T23:15:47.192Z,10.14
2023-05-11T23:18:13.974Z,10.18
2023-05-11T23:27:00.077Z,10.20
2023-05-11T23:29:28.086Z,10.26
2023-05-11T23:31:55.940Z,10.25
2023-05-11T23:34:23.549Z,10.26
2023-05-11T23:36:53.239Z,10.27
2023-05-11T23:39:20.481Z,10.19
2023-05-11T23:41:47.193Z,10.14
2023-05-11T23:44:13.897Z,9.98
2023-05-11T23:46:40.609Z,9.94
2023-05-11T23:49:07.952Z,10.09
2023-05-11T23:51:34.769Z,10.17
2023-05-11T23:54:01.567Z,10.08
2023-05-11T23:56:28.322Z,10.21
2023-05-11T23:58:55.054Z,10.17
